createdAt,value
2023-01-19T00:00:18.035Z,28.93
2023-01-19T00:02:47.607Z,29.60
2023-01-19T00:05:16.210Z,29.00
2023-01-19T00:07:44.515Z,28.80
2023-01-19T00:10:13.018Z,23.77
2023-01-19T00:12:41.493Z,22.33
2023-01-19T00:15:11.128Z,22.73
2023-01-19T00:17:42.350Z,21.43
2023-01-19T00:20:11.827Z,22.63
2023-01-19T00:22:39.736Z,22.70
2023-01-19T00:25:08.408Z,22.53
2023-01-19T00:27:36.644Z,22.30
2023-01-19T00:30:05.023Z,22.60
2023-01-19T00:32:32.971Z,22.67
2023-01-19T00:35:02.764Z,22.27
2023-01-19T00:37:30.826Z,23.03
2023-01-19T00:39:58.947Z,23.70
2023-01-19T00:42:40.875Z,23.33
2023-01-19T00:45:10.743Z,23.30
2023-01-19T00:47:39.571Z,23.67
2023-01-19T00:50:11.916Z,24.27
2023-01-19T00:52:40.193Z,24.40
2023-01-19T00:55:09.658Z,23.77
2023-01-19T00:57:37.885Z,23.50
2023-01-19T01:00:07.447Z,23.77
2023-01-19T01:02:36.967Z,23.33
2023-01-19T01:05:06.421Z,24.23
2023-01-19T01:07:40.694Z,24.57
2023-01-19T01:10:10.375Z,23.97
2023-01-19T01:12:39.177Z,24.20
2023-01-19T01:15:09.101Z,23.73
2023-01-19T01:17:37.743Z,23.30
2023-01-19T01:20:06.886Z,23.13
2023-01-19T01:22:36.481Z,23.60
2023-01-19T01:25:04.984Z,23.43
2023-01-19T01:27:33.323Z,23.87
2023-01-19T01:30:01.442Z,21.33
2023-01-19T01:32:29.899Z,22.93
2023-01-19T01:34:57.896Z,22.87
2023-01-19T01:37:26.287Z,22.53
2023-01-19T01:39:55.678Z,23.50
2023-01-19T01:42:28.806Z,23.73
2023-01-19T01:44:58.541Z,23.43
2023-01-19T01:47:31.897Z,22.97
2023-01-19T01:50:06.101Z,23.23
2023-01-19T01:52:36.529Z,23.87
2023-01-19T01:55:08.015Z,23.70
2023-01-19T01:57:37.657Z,23.97
2023-01-19T02:00:08.527Z,23.97
2023-01-19T02:02:53.535Z,23.87
2023-01-19T02:05:25.483Z,23.83
2023-01-19T02:08:17.325Z,24.07
2023-01-19T02:11:05.177Z,24.70
2023-01-19T02:13:36.845Z,24.27
2023-01-19T02:16:09.199Z,24.03
2023-01-19T02:18:39.098Z,24.00
2023-01-19T02:21:12.821Z,23.47
2023-01-19T02:23:45.237Z,23.23
2023-01-19T02:26:16.500Z,23.07
2023-01-19T02:28:47.232Z,23.60
2023-01-19T02:31:16.240Z,22.97
2023-01-19T02:33:44.622Z,23.07
2023-01-19T02:36:16.385Z,23.47
2023-01-19T02:38:48.126Z,23.13
2023-01-19T02:41:23.444Z,23.63
2023-01-19T02:43:52.289Z,23.20
2023-01-19T02:46:20.500Z,23.37
2023-01-19T02:48:48.576Z,23.70
2023-01-19T02:51:19.353Z,23.13
2023-01-19T02:54:12.278Z,23.93
2023-01-19T02:56:51.915Z,23.50
2023-01-19T02:59:30.725Z,23.03
2023-01-19T03:02:16.771Z,23.87
2023-01-19T03:04:58.444Z,23.63
2023-01-19T03:07:35.733Z,23.83
2023-01-19T03:10:15.728Z,24.00
2023-01-19T03:12:48.459Z,24.10
2023-01-19T03:15:22.461Z,23.50
2023-01-19T03:17:52.440Z,24.57
2023-01-19T03:20:24.692Z,25.00
2023-01-19T03:22:58.514Z,24.70
2023-01-19T03:25:32.415Z,25.30
2023-01-19T03:28:00.611Z,25.17
2023-01-19T03:30:32.895Z,25.33
2023-01-19T03:33:03.301Z,24.77
2023-01-19T03:35:36.480Z,23.90
2023-01-19T03:38:10.772Z,24.93
2023-01-19T03:40:41.558Z,24.97
2023-01-19T03:43:10.493Z,24.97
2023-01-19T03:45:40.349Z,25.47
2023-01-19T03:48:09.356Z,24.97
2023-01-19T03:50:37.755Z,26.07
2023-01-19T03:53:11.444Z,26.10
2023-01-19T03:55:43.368Z,26.00
2023-01-19T03:58:11.715Z,25.57
2023-01-19T04:00:40.695Z,25.43
2023-01-19T04:03:15.010Z,25.37
2023-01-19T04:05:43.305Z,25.87
2023-01-19T04:08:12.017Z,25.40
2023-01-19T04:10:41.520Z,25.57
2023-01-19T04:13:09.567Z,22.67
2023-01-19T04:15:37.759Z,22.20
2023-01-19T04:18:07.166Z,23.20
2023-01-19T04:20:35.168Z,22.70
2023-01-19T04:23:03.850Z,23.77
2023-01-19T04:25:32.540Z,22.93
2023-01-19T04:28:02.970Z,24.17
2023-01-19T04:30:31.274Z,25.60
2023-01-19T04:33:01.076Z,24.20
2023-01-19T04:35:29.397Z,25.60
2023-01-19T04:37:57.629Z,25.93
2023-01-19T04:40:25.846Z,25.90
2023-01-19T04:42:54.589Z,27.20
2023-01-19T04:45:23.955Z,26.40
2023-01-19T04:47:54.371Z,24.97
2023-01-19T04:50:22.799Z,25.70
2023-01-19T04:52:52.184Z,25.53
2023-01-19T04:55:20.931Z,25.53
2023-01-19T04:57:54.451Z,25.23
2023-01-19T05:06:08.282Z,24.77
2023-01-19T05:08:36.543Z,24.77
2023-01-19T05:11:05.725Z,25.50
2023-01-19T05:13:34.975Z,24.67
2023-01-19T05:16:06.419Z,24.67
2023-01-19T05:18:37.378Z,26.67
2023-01-19T05:21:08.375Z,27.17
2023-01-19T05:23:36.860Z,25.23
2023-01-19T05:26:06.636Z,32.33
2023-01-19T05:28:35.756Z,24.87
2023-01-19T05:31:04.247Z,26.93
2023-01-19T05:33:32.874Z,23.20
2023-01-19T05:36:01.765Z,22.33
2023-01-19T05:38:35.843Z,22.30
2023-01-19T05:41:04.723Z,20.70
2023-01-19T05:43:33.098Z,21.83
2023-01-19T05:46:01.522Z,21.63
2023-01-19T05:48:30.269Z,22.37
2023-01-19T05:51:00.286Z,23.87
2023-01-19T05:53:30.203Z,23.27
2023-01-19T05:56:01.464Z,23.50
2023-01-19T05:58:38.491Z,24.70
2023-01-19T06:01:09.607Z,23.77
2023-01-19T06:04:04.073Z,25.30
2023-01-19T06:09:33.976Z,23.70
2023-01-19T06:12:09.208Z,25.67
2023-01-19T06:14:39.412Z,27.13
2023-01-19T06:17:09.161Z,25.17
2023-01-19T06:25:35.267Z,27.47
2023-01-19T06:28:04.034Z,26.80
2023-01-19T06:30:32.778Z,27.03
2023-01-19T06:33:01.516Z,27.43
2023-01-19T06:35:30.318Z,28.47
2023-01-19T06:37:58.301Z,27.93
2023-01-19T06:40:26.480Z,28.17
2023-01-19T06:42:55.961Z,29.70
2023-01-19T06:45:24.063Z,29.10
2023-01-19T06:47:52.069Z,29.67
2023-01-19T06:50:23.188Z,29.97
2023-01-19T06:52:51.655Z,30.23
2023-01-19T06:55:20.045Z,30.90
2023-01-19T06:57:48.262Z,30.50
2023-01-19T07:00:20.256Z,30.57
2023-01-19T07:02:48.185Z,31.17
2023-01-19T07:05:17.102Z,30.77
2023-01-19T07:07:46.084Z,30.93
2023-01-19T07:10:15.830Z,32.07
2023-01-19T07:12:46.499Z,30.83
2023-01-19T07:15:15.025Z,30.43
2023-01-19T07:17:44.828Z,29.27
2023-01-19T07:20:14.533Z,27.20
2023-01-19T07:22:45.682Z,28.03
2023-01-19T07:25:14.447Z,26.33
2023-01-19T07:27:45.203Z,25.10
2023-01-19T07:30:16.111Z,24.60
2023-01-19T07:32:45.899Z,24.23
2023-01-19T07:35:14.415Z,24.30
2023-01-19T07:37:42.483Z,22.10
2023-01-19T07:40:11.856Z,23.20
2023-01-19T07:42:40.054Z,23.83
2023-01-19T07:45:09.018Z,23.23
2023-01-19T07:47:37.107Z,23.70
2023-01-19T07:50:08.071Z,24.23
2023-01-19T07:52:35.983Z,25.83
2023-01-19T07:55:04.238Z,25.93
2023-01-19T07:57:32.429Z,26.43
2023-01-19T08:00:00.472Z,24.30
2023-01-19T08:02:28.767Z,23.80
2023-01-19T08:04:57.236Z,24.77
2023-01-19T08:07:26.690Z,24.93
2023-01-19T08:09:55.432Z,24.23
2023-01-19T08:12:23.975Z,25.67
2023-01-19T08:14:52.194Z,26.93
2023-01-19T08:17:20.580Z,26.00
2023-01-19T08:19:48.633Z,26.40
2023-01-19T08:22:16.884Z,25.93
2023-01-19T08:24:46.181Z,25.53
2023-01-19T08:27:16.871Z,26.40
2023-01-19T08:29:46.173Z,25.00
2023-01-19T08:32:22.199Z,25.80
2023-01-19T08:34:51.912Z,25.07
2023-01-19T08:37:20.376Z,25.60
2023-01-19T08:39:50.618Z,24.90
2023-01-19T08:42:19.394Z,24.67
2023-01-19T08:44:57.669Z,23.87
2023-01-19T08:47:26.852Z,23.13
2023-01-19T08:49:55.570Z,24.00
2023-01-19T08:52:30.166Z,23.83
2023-01-19T08:55:01.779Z,23.30
2023-01-19T08:57:30.497Z,23.43
2023-01-19T09:00:01.605Z,22.77
2023-01-19T09:02:31.591Z,22.40
2023-01-19T09:05:00.151Z,22.87
2023-01-19T09:10:43.632Z,21.77
2023-01-19T09:13:41.750Z,20.00
2023-01-19T09:16:19.793Z,19.63
2023-01-19T09:21:57.078Z,18.77
2023-01-19T09:24:50.317Z,17.47
2023-01-19T09:27:53.269Z,18.37
2023-01-19T09:30:47.211Z,17.30
2023-01-19T09:33:18.041Z,16.87
2023-01-19T09:39:02.925Z,13.10
2023-01-19T09:41:48.662Z,9.73
2023-01-19T09:44:55.534Z,6.90
2023-01-19T09:47:28.532Z,8.27
2023-01-19T09:50:03.364Z,5.37
2023-01-19T09:52:48.917Z,4.50
2023-01-19T09:55:34.585Z,5.77
2023-01-19T09:58:23.644Z,4.10
2023-01-19T10:00:58.942Z,3.00
2023-01-19T10:03:29.997Z,5.40
2023-01-19T10:06:03.867Z,2.50
2023-01-19T10:08:38.723Z,3.33
2023-01-19T10:11:20.203Z,3.13
2023-01-19T10:13:52.327Z,4.23
2023-01-19T10:16:32.714Z,7.20
2023-01-19T10:19:13.262Z,4.53
2023-01-19T10:21:44.263Z,8.67
2023-01-19T10:24:19.008Z,3.60
2023-01-19T10:26:49.791Z,5.97
2023-01-19T10:29:23.095Z,4.73
2023-01-19T10:31:54.133Z,4.13
2023-01-19T10:34:25.353Z,3.63
2023-01-19T10:37:03.656Z,4.00
2023-01-19T10:39:34.035Z,2.67
2023-01-19T10:42:04.715Z,2.47
2023-01-19T10:44:38.179Z,3.47
2023-01-19T10:47:16.930Z,6.63
2023-01-19T10:49:45.907Z,4.23
2023-01-19T10:52:24.897Z,5.57
2023-01-19T10:54:53.332Z,5.77
2023-01-19T10:57:29.070Z,3.17
2023-01-19T10:59:57.471Z,2.57
2023-01-19T11:02:29.062Z,8.13
2023-01-19T11:04:59.141Z,4.50
2023-01-19T11:07:30.839Z,4.60
2023-01-19T11:10:23.134Z,4.27
2023-01-19T11:13:02.664Z,1.60
2023-01-19T11:15:35.903Z,4.07
2023-01-19T11:18:07.485Z,4.37
2023-01-19T11:20:49.453Z,3.03
2023-01-19T11:23:26.528Z,3.23
2023-01-19T11:25:58.131Z,4.33
2023-01-19T11:28:33.100Z,1.20
2023-01-19T11:31:07.081Z,3.33
2023-01-19T11:34:06.744Z,4.67
2023-01-19T11:36:37.863Z,2.40
2023-01-19T11:39:28.477Z,3.83
2023-01-19T11:42:12.657Z,3.03
2023-01-19T11:45:01.319Z,4.37
2023-01-19T11:47:52.231Z,1.77
2023-01-19T11:50:50.349Z,2.93
2023-01-19T12:04:44.415Z,4.37
2023-01-19T12:07:19.155Z,5.60
2023-01-19T12:09:50.983Z,3.50
2023-01-19T12:12:28.297Z,4.77
2023-01-19T12:15:00.763Z,3.70
2023-01-19T12:17:31.672Z,5.43
2023-01-19T12:20:14.590Z,4.47
2023-01-19T12:22:53.276Z,2.63
2023-01-19T12:25:23.940Z,2.70
2023-01-19T12:27:53.167Z,4.27
2023-01-19T12:30:23.995Z,6.93
2023-01-19T12:32:52.200Z,2.20
2023-01-19T12:36:00.001Z,4.57
2023-01-19T12:38:49.156Z,4.37
2023-01-19T12:41:36.994Z,7.47
2023-01-19T12:47:41.972Z,1.93
2023-01-19T12:50:19.476Z,4.47
2023-01-19T13:32:18.961Z,2.47
2023-01-19T13:34:52.029Z,5.20
2023-01-19T13:37:23.303Z,5.27
2023-01-19T13:39:55.334Z,4.93
2023-01-19T13:42:32.112Z,5.93
2023-01-19T13:45:03.320Z,5.20
2023-01-19T13:47:40.965Z,5.93
2023-01-19T13:50:21.592Z,5.57
2023-01-19T13:52:51.510Z,3.90
2023-01-19T13:55:20.860Z,2.07
2023-01-19T13:57:51.127Z,4.00
2023-01-19T14:00:22.821Z,3.53
2023-01-19T14:03:21.592Z,1.00
2023-01-19T14:05:52.918Z,4.63
2023-01-19T14:08:22.411Z,2.53
2023-01-19T14:11:02.684Z,2.30
2023-01-19T14:13:32.980Z,3.20
2023-01-19T14:16:06.252Z,3.97
2023-01-19T14:18:38.062Z,4.53
2023-01-19T14:21:09.210Z,3.93
2023-01-19T14:23:42.135Z,2.17
2023-01-19T14:26:42.375Z,5.73
2023-01-19T14:29:26.751Z,5.13
2023-01-19T14:32:07.905Z,3.00
2023-01-19T14:34:41.626Z,3.60
2023-01-19T14:37:22.829Z,1.57
2023-01-19T14:39:55.167Z,2.17
2023-01-19T14:42:27.236Z,2.67
2023-01-19T14:44:58.357Z,5.47
2023-01-19T14:47:34.760Z,5.83
2023-01-19T14:50:10.838Z,1.57
2023-01-19T14:52:42.487Z,4.80
2023-01-19T14:55:23.134Z,2.37
2023-01-19T14:57:51.633Z,3.80
2023-01-19T15:00:21.900Z,2.40
2023-01-19T15:02:50.531Z,4.03
2023-01-19T15:05:20.806Z,4.77
2023-01-19T15:07:49.414Z,4.10
2023-01-19T15:10:22.091Z,3.43
2023-01-19T15:12:52.282Z,3.63
2023-01-19T15:15:25.998Z,9.03
2023-01-19T15:17:56.277Z,5.17
2023-01-19T15:20:26.225Z,3.00
2023-01-19T15:22:54.660Z,3.13
2023-01-19T15:25:26.200Z,4.17
2023-01-19T15:27:58.399Z,4.47
2023-01-19T15:30:30.268Z,3.07
2023-01-19T15:32:59.024Z,6.40
2023-01-19T15:35:29.021Z,2.97
2023-01-19T15:37:57.524Z,3.40
2023-01-19T15:40:27.623Z,4.67
2023-01-19T15:42:56.119Z,5.57
2023-01-19T15:45:40.206Z,4.03
2023-01-19T15:48:11.047Z,5.60
2023-01-19T15:50:42.762Z,4.97
2023-01-19T15:53:15.606Z,3.70
2023-01-19T15:55:44.026Z,3.47
2023-01-19T15:58:14.108Z,1.97
2023-01-19T16:00:43.199Z,4.53
2023-01-19T16:03:12.771Z,6.03
2023-01-19T16:05:43.606Z,2.50
2023-01-19T16:08:12.498Z,5.37
2023-01-19T16:10:40.954Z,5.30
2023-01-19T16:13:09.732Z,2.77
2023-01-19T16:15:39.283Z,1.90
2023-01-19T16:18:08.044Z,2.63
2023-01-19T16:20:37.712Z,3.37
2023-01-19T16:23:16.087Z,4.67
2023-01-19T16:25:45.160Z,7.27
2023-01-19T16:28:13.319Z,3.53
2023-01-19T16:30:41.739Z,5.57
2023-01-19T16:33:11.674Z,4.13
2023-01-19T16:35:40.517Z,3.13
2023-01-19T16:38:28.884Z,3.03
2023-01-19T16:41:03.751Z,3.63
2023-01-19T16:43:32.259Z,4.33
2023-01-19T16:46:02.661Z,4.00
2023-01-19T16:48:32.290Z,3.90
2023-01-19T16:51:02.692Z,3.77
2023-01-19T16:53:34.775Z,3.50
2023-01-19T16:56:06.439Z,8.80
2023-01-19T16:58:34.996Z,5.27
2023-01-19T17:01:08.380Z,6.20
2023-01-19T17:03:37.852Z,9.20
2023-01-19T17:06:06.452Z,13.23
2023-01-19T17:08:36.732Z,16.63
2023-01-19T17:11:10.965Z,19.50
2023-01-19T17:13:39.954Z,22.13
2023-01-19T17:16:08.894Z,23.53
2023-01-19T17:18:38.371Z,23.97
2023-01-19T17:21:08.544Z,26.87
2023-01-19T17:23:43.053Z,27.50
2023-01-19T17:26:11.406Z,27.73
2023-01-19T17:28:40.421Z,29.47
2023-01-19T17:31:09.616Z,30.53
2023-01-19T17:33:38.169Z,30.93
2023-01-19T17:36:07.831Z,32.53
2023-01-19T17:38:37.979Z,31.23
2023-01-19T17:41:13.433Z,31.33
2023-01-19T17:43:41.462Z,31.70
2023-01-19T17:46:09.782Z,32.07
2023-01-19T17:48:38.254Z,31.30
2023-01-19T17:51:08.021Z,30.87
2023-01-19T17:53:39.353Z,32.37
2023-01-19T17:56:14.420Z,32.90
2023-01-19T17:58:43.224Z,30.30
2023-01-19T18:01:12.986Z,32.10
2023-01-19T18:03:41.588Z,33.00
2023-01-19T18:06:10.354Z,31.97
2023-01-19T18:08:41.688Z,30.50
2023-01-19T18:11:11.516Z,31.17
2023-01-19T18:13:42.818Z,34.43
2023-01-19T18:16:13.160Z,32.77
2023-01-19T18:18:41.699Z,32.77
2023-01-19T18:21:13.091Z,33.60
2023-01-19T18:23:43.659Z,31.80
2023-01-19T18:26:14.306Z,30.83
2023-01-19T18:28:42.227Z,31.33
2023-01-19T18:31:11.365Z,31.07
2023-01-19T18:33:40.128Z,31.17
2023-01-19T18:36:10.027Z,30.87
2023-01-19T18:38:38.903Z,31.07
2023-01-19T18:41:11.277Z,31.13
2023-01-19T18:43:40.043Z,34.63
2023-01-19T18:46:09.189Z,40.27
2023-01-19T18:48:38.408Z,39.30
2023-01-19T18:51:07.628Z,32.83
2023-01-19T18:53:36.562Z,33.30
2023-01-19T18:56:05.895Z,32.63
2023-01-19T18:58:39.067Z,34.93
2023-01-19T19:01:22.314Z,36.33
2023-01-19T19:03:50.706Z,39.57
2023-01-19T19:06:20.716Z,33.63
2023-01-19T19:08:50.369Z,32.40
2023-01-19T19:11:19.396Z,31.57
2023-01-19T19:13:53.251Z,29.47
2023-01-19T19:16:21.238Z,30.13
2023-01-19T19:18:50.345Z,29.50
2023-01-19T19:21:20.249Z,30.27
2023-01-19T19:23:52.363Z,30.83
2023-01-19T19:26:20.706Z,30.30
2023-01-19T19:28:50.097Z,31.20
2023-01-19T19:31:20.698Z,30.93
2023-01-19T19:33:50.776Z,32.70
2023-01-19T19:36:20.050Z,31.03
2023-01-19T19:38:48.268Z,31.90
2023-01-19T19:41:18.286Z,34.87
2023-01-19T19:43:46.343Z,35.20
2023-01-19T19:46:17.805Z,34.83
2023-01-19T19:48:46.197Z,34.60
2023-01-19T19:51:18.973Z,34.53
2023-01-19T19:53:50.844Z,34.93
2023-01-19T19:56:21.090Z,35.53
2023-01-19T19:58:50.439Z,34.77
2023-01-19T20:01:33.926Z,34.40
2023-01-19T20:04:07.209Z,36.03
2023-01-19T20:06:38.730Z,35.23
2023-01-19T20:09:08.908Z,37.03
2023-01-19T20:11:37.907Z,35.17
2023-01-19T20:14:07.281Z,34.70
2023-01-19T20:16:42.655Z,34.10
2023-01-19T20:19:11.233Z,34.53
2023-01-19T20:21:42.982Z,34.77
2023-01-19T20:24:14.462Z,34.13
2023-01-19T20:26:44.661Z,35.73
2023-01-19T20:29:12.932Z,34.93
2023-01-19T20:31:46.559Z,32.77
2023-01-19T20:34:17.221Z,33.07
2023-01-19T20:37:10.241Z,34.87
2023-01-19T20:39:48.488Z,34.77
2023-01-19T20:58:31.246Z,35.03
2023-01-19T21:00:59.461Z,34.87
2023-01-19T21:03:29.639Z,35.07
2023-01-19T21:05:59.574Z,35.07
2023-01-19T21:08:27.856Z,34.93
2023-01-19T21:10:57.315Z,34.07
2023-01-19T21:13:25.908Z,35.40
2023-01-19T21:15:55.902Z,34.87
2023-01-19T21:18:25.089Z,34.00
2023-01-19T21:20:53.148Z,34.63
2023-01-19T21:23:21.281Z,33.73
2023-01-19T21:39:26.448Z,33.77
2023-01-19T21:41:55.662Z,32.70
2023-01-19T21:44:28.467Z,32.67
2023-01-19T21:52:14.199Z,31.77
2023-01-19T21:54:44.103Z,31.43
2023-01-19T21:57:15.196Z,31.53
2023-01-19T21:59:43.338Z,32.47
2023-01-19T22:02:13.065Z,32.07
2023-01-19T22:04:41.701Z,32.40
2023-01-19T22:07:10.315Z,31.80
2023-01-19T22:09:38.815Z,31.60
2023-01-19T22:12:10.891Z,31.57
2023-01-19T22:14:46.823Z,31.87
2023-01-19T22:17:15.880Z,31.90
2023-01-19T22:19:44.984Z,31.90
2023-01-19T22:22:15.055Z,31.70
2023-01-19T22:24:47.072Z,31.00
2023-01-19T22:27:19.260Z,31.40
2023-01-19T22:29:53.029Z,31.13
2023-01-19T22:32:21.347Z,30.63
2023-01-19T22:34:49.758Z,31.57
2023-01-19T22:37:18.093Z,31.80
2023-01-19T22:39:46.264Z,31.47
2023-01-19T22:42:14.460Z,30.50
2023-01-19T22:44:44.196Z,31.10
2023-01-19T22:47:12.442Z,31.37
2023-01-19T22:49:40.734Z,29.67
2023-01-19T22:52:08.863Z,30.37
2023-01-19T22:54:37.758Z,30.37
2023-01-19T22:57:07.077Z,30.60
2023-01-19T22:59:35.179Z,31.43
2023-01-19T23:02:05.520Z,31.70
2023-01-19T23:04:33.871Z,30.57
2023-01-19T23:07:02.065Z,30.00
2023-01-19T23:09:30.301Z,31.33
2023-01-19T23:11:58.812Z,31.00
2023-01-19T23:14:27.190Z,32.50
2023-01-19T23:16:55.344Z,32.83
2023-01-19T23:19:24.826Z,33.90
2023-01-19T23:21:53.649Z,35.67
2023-01-19T23:24:21.789Z,37.37
2023-01-19T23:26:50.350Z,37.60
2023-01-19T23:29:19.575Z,39.53
2023-01-19T23:31:50.110Z,39.30
2023-01-19T23:34:18.393Z,40.70
2023-01-19T23:36:47.771Z,42.93
2023-01-19T23:39:18.648Z,42.13
2023-01-19T23:41:47.288Z,43.10
2023-01-19T23:44:36.002Z,43.63
2023-01-19T23:57:42.413Z,46.57
